ACJ weather

Jimmy Carter Regional Airport
Americus, Georgia, United States

Public forecast

Using degrees Fahrenheit for public forecast. Weather courtesy of forecast.io.

Current aviation weather report (METAR) for Jimmy Carter Regional Airport

Retrieved 2019/12/12 00:35 UTC (0 seconds ago):

KACJ 120035Z AUTO 04004KT 10SM CLR 06/01 A3046 RMK AO2

Closest aviation forecast (TAF) to Jimmy Carter Regional Airport

Closest forecast is Southwest Georgia Regional Airport, 34.5 nm (64.0 km) S. Retrieved 2019-12-12 00:28 UTC (4 minutes ago):

TAF KABY 112325Z 1200/1224 02009KT P6SM OVC060 FM121500 07011G17KT P6SM VCSH BKN025